Portada
METAR-TAF:

METAR-TAF

Aeropuertos :

Spaa

Tomaszów Mazowiecki, Polonia

latitud: 51-35-04N, longitud: 020-05-52E, altitud: 174 m

METAR: falta

Hora: 03:43 (01:43 UTC)

Pronóstico

El informe se hizo hace 2 horas y 43 minutos, a las 23:00 UTC
Pronóstico válido del 03 a las 00 UTC al 03 a las 09 UTC
Viento 4 kt del norte-noroeste
Visibilidad 10 km o más
sin nubes por debajo de 1500 m y sin presencia de cumulonimbus.
Evolucionando progresivamente
del 03 a las 05 UTC al 03 a las 07 UTC
Nubes dispersas a una altura de 4000 ft

TAF: EPTM 022300Z 0300/0309 33004KT CAVOK BECMG 0305/0307 SCT040

Observaciones y pronósticos meteorológicos de más de 4000 aeropuertos (mensajes METAR y TAF).

Los puntos amarillos y rojos representan las estaciones disponibles.

Ponga el ratón en el punto deseado para ver el nombre de la estación.

Haga clic para ver las observaciones y los pronósticos meteorológicos.

Para cambiar el mapa : haga clic en los botones verdes con una cruz de color negro para hacer un zoom, en el botón verde con un guión para alejar o en las flechas verdes para mapas adyacentes.


METAR-TAF: